Time;durP1;ratioP1;P1;durP2;ratioP2;P2;SDS_P1;SDS_P2;PMS_P1;PMS_P2;Temp;Humidity;BMP_temperature;BMP_pressure;BME280_temperature;BME280_humidity;BME280_pressure;Samples;Min_cycle;Max_cycle;Signal;HPM_P1;HPM_P2
2022/07/22 00:00:29;;;;;;;6.68;1.83;;;18.40;77.30;;;;;;9181345;19;20006;-64
2022/07/22 00:03:37;;;;;;;4.28;1.63;;;18.40;77.30;;;;;;9182521;19;20003;-65
2022/07/22 00:06:42;;;;;;;9.35;2.28;;;18.40;77.50;;;;;;9177077;19;20015;-67
2022/07/22 00:09:47;;;;;;;8.27;1.77;;;18.40;77.40;;;;;;9183397;19;20847;-66
2022/07/22 00:12:52;;;;;;;5.35;1.75;;;18.40;77.50;;;;;;9177755;19;20022;-66
2022/07/22 00:15:57;;;;;;;12.85;2.35;;;18.40;77.50;;;;;;9180315;19;20014;-66
2022/07/22 00:19:05;;;;;;;7.35;1.98;;;18.40;77.50;;;;;;9182275;19;20090;-65
2022/07/22 00:22:10;;;;;;;7.78;2.33;;;18.40;77.50;;;;;;9180518;19;20025;-64
2022/07/22 00:25:15;;;;;;;7.38;2.25;;;18.30;77.40;;;;;;9182216;19;20362;-64
2022/07/22 00:28:20;;;;;;;8.05;2.03;;;18.40;77.50;;;;;;9182391;19;20050;-64
2022/07/22 00:31:25;;;;;;;10.07;2.22;;;18.40;77.50;;;;;;9179388;19;20015;-65
2022/07/22 00:34:33;;;;;;;9.80;2.38;;;18.30;77.50;;;;;;9180600;19;20023;-64
2022/07/22 00:37:38;;;;;;;10.73;2.60;;;18.40;77.60;;;;;;9182098;19;20620;-64
2022/07/22 00:40:43;;;;;;;9.52;2.55;;;18.30;77.50;;;;;;9179721;19;20006;-64
2022/07/22 00:43:52;;;;;;;14.60;2.83;;;18.40;77.60;;;;;;9179071;19;20014;-64
2022/07/22 00:46:57;;;;;;;23.30;2.83;;;18.30;77.60;;;;;;9182198;19;20039;-64
2022/07/22 00:50:06;;;;;;;10.95;2.40;;;18.30;77.50;;;;;;9179988;19;20022;-63
2022/07/22 00:53:12;;;;;;;11.75;2.70;;;18.30;77.50;;;;;;9179323;19;20014;-66
2022/07/22 00:56:18;;;;;;;9.43;2.22;;;18.30;77.50;;;;;;9179250;19;20007;-65
2022/07/22 00:59:24;;;;;;;11.88;2.63;;;18.30;77.60;;;;;;9180423;19;20025;-63
2022/07/22 01:02:29;;;;;;;9.45;2.42;;;18.30;77.50;;;;;;9181514;19;20014;-66
2022/07/22 01:05:36;;;;;;;11.80;3.15;;;18.30;77.50;;;;;;9173998;19;20061;-66
2022/07/22 01:08:43;;;;;;;8.40;2.63;;;18.20;77.40;;;;;;9179409;19;20372;-64
2022/07/22 01:11:48;;;;;;;10.88;2.22;;;18.30;77.50;;;;;;9179514;19;20019;-65
2022/07/22 01:14:53;;;;;;;15.77;2.75;;;18.30;77.40;;;;;;9179475;19;20015;-65
2022/07/22 01:17:58;;;;;;;11.15;2.38;;;18.20;77.40;;;;;;9176962;19;20025;-65
2022/07/22 01:21:06;;;;;;;15.23;2.67;;;18.20;77.40;;;;;;9179967;19;20360;-65
2022/07/22 01:24:11;;;;;;;8.65;2.03;;;18.10;77.40;;;;;;9178700;19;20018;-66
2022/07/22 01:27:16;;;;;;;13.05;3.28;;;18.10;77.30;;;;;;9179830;19;20456;-66
2022/07/22 01:30:22;;;;;;;14.95;2.78;;;18.10;77.30;;;;;;9179508;19;20018;-65
2022/07/22 01:33:27;;;;;;;10.00;2.30;;;18.10;77.40;;;;;;9178257;19;20017;-66
2022/07/22 01:36:35;;;;;;;8.95;2.42;;;18.10;77.40;;;;;;9174974;19;20022;-64
2022/07/22 01:39:40;;;;;;;18.15;2.70;;;18.10;77.50;;;;;;9177340;19;20010;-64
2022/07/22 01:42:45;;;;;;;11.98;2.70;;;18.10;77.50;;;;;;9177375;19;20119;-65
2022/07/22 01:45:53;;;;;;;9.60;2.95;;;18.10;77.50;;;;;;9177709;19;20070;-65
2022/07/22 01:48:59;;;;;;;11.25;2.45;;;18.10;77.60;;;;;;9177468;19;20054;-65
2022/07/22 01:52:12;;;;;;;9.05;2.78;;;18.10;77.60;;;;;;9175884;19;20368;-67
2022/07/22 01:55:19;;;;;;;8.18;2.33;;;18.10;77.70;;;;;;9177153;19;20025;-65
2022/07/22 01:58:24;;;;;;;7.25;2.53;;;18.10;77.60;;;;;;9177764;19;20322;-66
2022/07/22 02:01:31;;;;;;;8.27;2.85;;;18.10;77.60;;;;;;9177370;19;20038;-65
2022/07/22 02:04:38;;;;;;;11.10;2.95;;;18.10;77.60;;;;;;9175087;19;20014;-64
2022/07/22 02:07:46;;;;;;;9.57;2.17;;;18.20;77.70;;;;;;9172006;19;20018;-65
2022/07/22 02:10:51;;;;;;;12.82;3.17;;;18.10;77.70;;;;;;9175898;19;20029;-66
2022/07/22 02:13:56;;;;;;;8.43;2.47;;;18.10;77.70;;;;;;9173075;19;20067;-65
2022/07/22 02:17:03;;;;;;;14.02;2.40;;;18.20;77.70;;;;;;9176000;19;20018;-65
2022/07/22 02:20:10;;;;;;;10.02;2.60;;;18.10;77.60;;;;;;9176036;19;20011;-66
2022/07/22 02:23:18;;;;;;;10.02;2.28;;;18.20;77.70;;;;;;9175260;19;20014;-64
2022/07/22 02:26:23;;;;;;;8.95;2.55;;;18.10;77.70;;;;;;9177035;19;20112;-65
2022/07/22 02:29:28;;;;;;;13.45;2.50;;;18.20;77.70;;;;;;9187746;19;20446;-65
2022/07/22 02:32:35;;;;;;;10.60;2.58;;;18.20;77.70;;;;;;9183745;19;20352;-66
2022/07/22 02:35:40;;;;;;;8.27;1.95;;;18.10;77.60;;;;;;9185291;19;20048;-66
2022/07/22 02:38:48;;;;;;;12.93;2.50;;;18.10;77.60;;;;;;9185670;19;20014;-65
2022/07/22 02:41:53;;;;;;;12.57;3.03;;;18.20;77.70;;;;;;9186395;19;20014;-64
2022/07/22 02:44:58;;;;;;;9.43;2.47;;;18.10;77.50;;;;;;9186724;19;20056;-65
2022/07/22 02:48:04;;;;;;;14.15;2.42;;;18.10;77.50;;;;;;9185675;19;20333;-64
2022/07/22 02:51:11;;;;;;;6.70;2.08;;;18.10;77.50;;;;;;9184314;19;20369;-65
2022/07/22 02:54:18;;;;;;;14.38;2.22;;;18.10;77.90;;;;;;9180920;19;20026;-65
2022/07/22 02:57:23;;;;;;;7.72;2.35;;;18.10;77.60;;;;;;9183888;19;20010;-66
2022/07/22 03:00:28;;;;;;;8.40;2.40;;;18.10;77.50;;;;;;9183687;19;20026;-65
2022/07/22 03:03:34;;;;;;;11.43;3.40;;;18.10;77.50;;;;;;9184381;19;20015;-64
2022/07/22 03:06:39;;;;;;;10.75;2.90;;;18.10;77.50;;;;;;9180411;19;20025;-66
2022/07/22 03:09:51;;;;;;;7.55;2.22;;;18.10;77.60;;;;;;9181435;19;20023;-65
2022/07/22 03:13:02;;;;;;;10.80;2.10;;;18.00;77.60;;;;;;9184702;19;20479;-65
2022/07/22 03:16:07;;;;;;;11.50;2.03;;;18.00;77.50;;;;;;9185315;19;20020;-66
2022/07/22 03:19:14;;;;;;;8.75;2.35;;;18.00;77.50;;;;;;9183294;19;20483;-64
2022/07/22 03:22:23;;;;;;;9.30;2.35;;;18.00;77.50;;;;;;9183759;19;20019;-65
2022/07/22 03:25:32;;;;;;;13.85;2.85;;;18.00;77.50;;;;;;9184423;19;20025;-65
2022/07/22 03:28:37;;;;;;;8.45;2.60;;;18.00;77.50;;;;;;9182892;19;20019;-65
2022/07/22 03:31:42;;;;;;;5.03;1.92;;;18.00;77.40;;;;;;9183152;19;20022;-64
2022/07/22 03:34:47;;;;;;;8.05;2.03;;;18.00;77.40;;;;;;9179275;19;20019;-64
2022/07/22 03:37:54;;;;;;;12.13;2.55;;;18.00;77.40;;;;;;9182568;19;20014;-65
2022/07/22 03:41:03;;;;;;;6.13;1.90;;;18.00;77.40;;;;;;9182837;19;20037;-66
2022/07/22 03:44:08;;;;;;;6.32;2.08;;;18.00;77.40;;;;;;9183888;19;20025;-64
2022/07/22 03:47:13;;;;;;;7.38;1.88;;;18.00;77.30;;;;;;9182526;19;20011;-65
2022/07/22 03:50:19;;;;;;;9.23;2.20;;;18.00;77.30;;;;;;9182399;19;20017;-66
2022/07/22 03:53:24;;;;;;;12.23;2.35;;;18.00;77.30;;;;;;9181112;19;20556;-64
2022/07/22 03:56:32;;;;;;;11.10;2.65;;;18.00;77.20;;;;;;9181840;19;20011;-65
2022/07/22 03:59:37;;;;;;;16.70;2.40;;;18.00;77.30;;;;;;9182870;19;20019;-65
2022/07/22 04:02:43;;;;;;;5.82;2.30;;;18.00;77.20;;;;;;9181768;19;20013;-66
2022/07/22 04:05:57;;;;;;;5.63;2.43;;;17.90;77.20;;;;;;9174228;19;20011;-65
2022/07/22 04:09:10;;;;;;;10.73;2.55;;;17.90;77.10;;;;;;9182938;19;20022;-64
2022/07/22 04:12:17;;;;;;;8.23;2.40;;;17.90;77.10;;;;;;9182717;19;20011;-65
2022/07/22 04:15:42;;;;;;;11.32;2.58;;;17.90;77.10;;;;;;9183132;19;20509;-65
2022/07/22 04:18:48;;;;;;;6.75;2.17;;;17.90;77.10;;;;;;9181659;19;20022;-65
2022/07/22 04:21:53;;;;;;;5.63;2.20;;;17.90;77.10;;;;;;9181446;19;20355;-65
2022/07/22 04:25:01;;;;;;;5.38;2.08;;;17.90;77.10;;;;;;9180425;19;20006;-65
2022/07/22 04:28:09;;;;;;;9.30;2.20;;;17.90;77.10;;;;;;9180478;19;20506;-66
2022/07/22 04:31:14;;;;;;;10.73;2.60;;;17.90;77.10;;;;;;9180562;19;20010;-64
2022/07/22 04:34:20;;;;;;;12.68;2.88;;;17.90;77.00;;;;;;9178325;19;20019;-65
2022/07/22 04:37:27;;;;;;;20.42;2.33;;;17.90;77.00;;;;;;9180326;19;20140;-65
2022/07/22 04:40:32;;;;;;;6.35;2.10;;;17.90;77.00;;;;;;9180335;19;20064;-66
2022/07/22 04:43:40;;;;;;;9.85;2.35;;;17.90;77.00;;;;;;9181901;19;20026;-65
2022/07/22 04:46:45;;;;;;;9.48;2.50;;;17.90;77.00;;;;;;9181060;19;20018;-65
2022/07/22 04:49:51;;;;;;;11.35;2.40;;;17.90;77.00;;;;;;9177777;19;20074;-65
2022/07/22 04:52:56;;;;;;;14.15;2.65;;;17.90;77.00;;;;;;9179400;19;20011;-65
2022/07/22 04:56:01;;;;;;;14.50;2.40;;;17.90;77.10;;;;;;9179044;19;20025;-65
2022/07/22 04:59:09;;;;;;;7.68;2.20;;;17.90;77.00;;;;;;9181166;19;20029;-65
2022/07/22 05:02:14;;;;;;;10.80;2.33;;;17.90;77.00;;;;;;9175399;19;20078;-65
2022/07/22 05:05:20;;;;;;;8.70;2.33;;;17.90;77.00;;;;;;9173222;19;20368;-65
2022/07/22 05:08:25;;;;;;;13.38;2.42;;;17.90;77.00;;;;;;9178095;19;20014;-66
2022/07/22 05:11:31;;;;;;;13.13;2.47;;;17.90;77.00;;;;;;9178509;19;20038;-64
2022/07/22 05:14:38;;;;;;;5.63;2.00;;;18.00;77.10;;;;;;9177148;19;20078;-65
2022/07/22 05:17:43;;;;;;;7.78;2.15;;;18.00;77.00;;;;;;9178413;19;20014;-65
2022/07/22 05:20:57;;;;;;;13.30;2.55;;;18.00;76.90;;;;;;9178461;19;20014;-64
2022/07/22 05:24:03;;;;;;;8.80;2.53;;;18.00;76.80;;;;;;9177812;19;20010;-64
2022/07/22 05:27:09;;;;;;;10.90;2.83;;;18.00;76.80;;;;;;9177849;19;20011;-65
2022/07/22 05:30:16;;;;;;;11.10;2.38;;;18.00;76.80;;;;;;9179518;19;20014;-65
2022/07/22 05:33:28;;;;;;;7.15;2.05;;;18.00;76.70;;;;;;9176911;19;20014;-65
2022/07/22 05:36:33;;;;;;;8.13;2.30;;;18.10;76.60;;;;;;9178029;19;20029;-67
2022/07/22 05:39:38;;;;;;;6.97;2.28;;;18.10;76.60;;;;;;9178593;19;20006;-65
2022/07/22 05:42:44;;;;;;;7.03;2.40;;;18.10;76.40;;;;;;9177296;19;20682;-65
2022/07/22 05:45:52;;;;;;;10.48;1.85;;;18.10;76.40;;;;;;9177732;19;20406;-66
2022/07/22 05:48:58;;;;;;;6.25;1.77;;;18.10;76.30;;;;;;9176520;19;20053;-65
2022/07/22 05:52:07;;;;;;;11.00;2.03;;;18.10;76.20;;;;;;9177543;19;20014;-65
2022/07/22 05:55:12;;;;;;;10.18;2.40;;;18.10;76.10;;;;;;9177542;19;20018;-67
2022/07/22 05:58:20;;;;;;;10.48;2.13;;;18.10;76.00;;;;;;9174492;19;20078;-65
2022/07/22 06:01:29;;;;;;;4.80;1.50;;;18.20;76.10;;;;;;9175883;19;20030;-64
2022/07/22 06:04:37;;;;;;;7.93;1.48;;;18.20;76.00;;;;;;9176579;19;20029;-66
2022/07/22 06:07:42;;;;;;;11.32;2.00;;;18.20;75.90;;;;;;9171411;19;20018;-65
2022/07/22 06:10:50;;;;;;;8.45;1.77;;;18.20;75.80;;;;;;9177010;19;20015;-65
2022/07/22 06:13:57;;;;;;;5.15;1.58;;;18.20;75.70;;;;;;9174991;19;20027;-66
2022/07/22 06:17:04;;;;;;;6.10;1.80;;;18.20;75.60;;;;;;9176362;19;20018;-65
2022/07/22 06:20:12;;;;;;;8.55;2.13;;;18.30;75.70;;;;;;9177110;19;20427;-66
2022/07/22 06:23:17;;;;;;;7.43;1.52;;;18.30;75.50;;;;;;9176822;19;20082;-64
2022/07/22 06:26:22;;;;;;;4.20;1.40;;;18.30;75.30;;;;;;9175835;19;20022;-64
2022/07/22 06:29:27;;;;;;;6.60;1.55;;;18.30;75.30;;;;;;9175734;19;20010;-65
2022/07/22 06:32:35;;;;;;;8.93;1.90;;;18.30;75.20;;;;;;9177328;19;20018;-64
2022/07/22 06:35:42;;;;;;;9.27;1.98;;;18.40;75.20;;;;;;9173316;19;20364;-65
2022/07/22 06:38:47;;;;;;;4.57;1.52;;;18.40;75.10;;;;;;9176724;19;20660;-64
2022/07/22 06:42:13;;;;;;;5.78;1.45;;;18.40;75.00;;;;;;9176768;19;20051;-65
2022/07/22 06:45:37;;;;;;;10.05;1.83;;;18.50;74.90;;;;;;9176863;19;20358;-67
2022/07/22 06:48:52;;;;;;;13.68;2.38;;;18.50;74.90;;;;;;9176077;19;20952;-66
2022/07/22 06:51:57;;;;;;;5.22;1.48;;;18.50;74.80;;;;;;9175253;19;20118;-65
2022/07/22 06:55:03;;;;;;;16.05;1.98;;;18.50;74.80;;;;;;9171875;19;20447;-66
2022/07/22 06:58:12;;;;;;;7.22;1.33;;;18.60;74.70;;;;;;9174495;19;20077;-64
2022/07/22 07:01:17;;;;;;;5.70;1.60;;;18.70;74.60;;;;;;9168707;19;20019;-65
2022/07/22 07:04:31;;;;;;;7.65;1.90;;;18.70;74.40;;;;;;9168029;19;20033;-65
2022/07/22 07:07:36;;;;;;;5.28;1.50;;;18.80;74.40;;;;;;9167443;19;20669;-67
2022/07/22 07:10:42;;;;;;;3.42;1.33;;;18.80;74.30;;;;;;9169613;19;20021;-65
2022/07/22 07:13:50;;;;;;;2.83;1.15;;;18.80;74.20;;;;;;9176169;19;20420;-65
2022/07/22 07:16:56;;;;;;;4.20;1.73;;;18.90;74.10;;;;;;9183188;19;20019;-67
2022/07/22 07:20:04;;;;;;;3.25;1.67;;;18.90;74.70;;;;;;9184406;19;20048;-67
2022/07/22 07:23:10;;;;;;;8.63;1.60;;;19.00;74.00;;;;;;9184661;19;20007;-65
2022/07/22 07:26:20;;;;;;;8.77;2.22;;;19.00;73.90;;;;;;9184579;19;20018;-66
2022/07/22 07:29:25;;;;;;;9.82;1.95;;;19.10;73.80;;;;;;9180724;19;20018;-67
2022/07/22 07:32:31;;;;;;;8.95;2.28;;;19.10;73.80;;;;;;9181123;19;20018;-66
2022/07/22 07:35:39;;;;;;;11.98;1.95;;;19.20;73.80;;;;;;9177590;19;20022;-65
2022/07/22 07:38:44;;;;;;;6.28;2.30;;;19.20;73.60;;;;;;9183501;19;20038;-66
2022/07/22 07:41:53;;;;;;;10.02;2.00;;;19.20;73.50;;;;;;9183291;19;20006;-66
2022/07/22 07:45:00;;;;;;;14.35;3.05;;;19.20;73.40;;;;;;9183152;19;20022;-67
2022/07/22 07:48:06;;;;;;;5.15;1.75;;;19.30;73.30;;;;;;9183693;19;20022;-66
2022/07/22 07:51:14;;;;;;;6.70;1.80;;;19.30;73.20;;;;;;9181157;19;20026;-65
2022/07/22 07:54:19;;;;;;;4.32;1.50;;;19.30;73.10;;;;;;9182714;19;20632;-65
2022/07/22 07:57:27;;;;;;;5.25;1.52;;;19.30;73.10;;;;;;9182357;19;20018;-64
2022/07/22 08:00:34;;;;;;;6.82;2.28;;;19.30;73.00;;;;;;9182590;19;20021;-64
2022/07/22 08:03:40;;;;;;;5.93;1.60;;;19.30;72.90;;;;;;9179757;19;20018;-65
2022/07/22 08:06:48;;;;;;;7.82;1.38;;;19.40;72.80;;;;;;9178664;19;20392;-66
2022/07/22 08:09:53;;;;;;;7.05;2.05;;;19.40;72.70;;;;;;9182561;19;20015;-66
2022/07/22 08:13:37;;;;;;;14.00;1.70;;;19.40;72.60;;;;;;9182337;19;20006;-65
2022/07/22 08:16:56;;;;;;;9.38;1.70;;;19.40;72.50;;;;;;9178106;19;20086;-64
2022/07/22 08:20:01;;;;;;;4.57;1.70;;;19.50;72.50;;;;;;9183317;19;20026;-64
2022/07/22 08:23:12;;;;;;;9.38;1.50;;;19.50;72.30;;;;;;9180738;19;20333;-64
2022/07/22 08:26:20;;;;;;;7.03;1.67;;;19.50;72.10;;;;;;9176028;19;20051;-64
2022/07/22 08:29:25;;;;;;;5.45;1.63;;;19.50;72.10;;;;;;9177215;19;20480;-65
2022/07/22 08:32:30;;;;;;;7.25;1.65;;;19.60;72.10;;;;;;9178083;19;20020;-64
2022/07/22 08:35:36;;;;;;;4.50;1.63;;;19.60;72.00;;;;;;9175876;19;20022;-65
2022/07/22 08:38:44;;;;;;;5.78;1.63;;;19.60;72.00;;;;;;9177335;19;20477;-65
2022/07/22 08:41:49;;;;;;;6.05;1.60;;;19.60;71.90;;;;;;9176971;19;20019;-64
2022/07/22 08:44:55;;;;;;;5.10;1.27;;;19.70;71.90;;;;;;9177034;19;20022;-66
2022/07/22 08:48:08;;;;;;;7.50;2.50;;;19.70;71.80;;;;;;9174448;19;20010;-64
2022/07/22 08:51:25;;;;;;;13.15;1.60;;;19.80;71.70;;;;;;9177074;19;20019;-65
2022/07/22 08:54:57;;;;;;;5.35;1.48;;;19.90;71.50;;;;;;9174328;19;20400;-65
2022/07/22 08:58:03;;;;;;;5.32;1.35;;;20.00;71.30;;;;;;9171016;19;20025;-65
2022/07/22 09:01:10;;;;;;;8.40;1.45;;;20.10;71.20;;;;;;9177218;19;20019;-67
2022/07/22 09:04:21;;;;;;;1.63;1.10;;;20.10;71.10;;;;;;9176055;19;20054;-67
2022/07/22 09:07:33;;;;;;;6.15;1.50;;;20.10;71.00;;;;;;9172104;19;20014;-65
2022/07/22 09:10:48;;;;;;;8.65;1.50;;;20.10;70.90;;;;;;9175083;19;20030;-66
2022/07/22 09:14:15;;;;;;;5.50;1.85;;;20.20;70.90;;;;;;9177562;19;20460;-66
2022/07/22 09:17:49;;;;;;;10.05;2.22;;;20.30;70.90;;;;;;9178462;19;20017;-67
2022/07/22 09:21:17;;;;;;;2.90;1.15;;;20.40;70.90;;;;;;9176317;19;20107;-68
2022/07/22 09:24:36;;;;;;;3.70;1.27;;;20.50;70.60;;;;;;9178038;19;20041;-65
2022/07/22 09:28:17;;;;;;;3.35;1.20;;;20.70;70.40;;;;;;9179728;19;20014;-65
2022/07/22 09:31:42;;;;;;;4.13;1.50;;;20.80;69.80;;;;;;9180697;19;20384;-68
2022/07/22 09:35:05;;;;;;;6.33;1.90;;;20.90;69.80;;;;;;9179263;19;20014;-66
2022/07/22 09:38:20;;;;;;;4.75;1.85;;;21.00;69.40;;;;;;9177356;19;20018;-67
2022/07/22 09:41:25;;;;;;;11.07;2.40;;;21.10;69.40;;;;;;9178754;19;20018;-66
2022/07/22 09:44:34;;;;;;;9.95;1.98;;;21.10;69.20;;;;;;9179224;19;20015;-66
2022/07/22 09:47:48;;;;;;;7.35;1.90;;;21.20;69.00;;;;;;9179624;19;20017;-68
2022/07/22 09:51:12;;;;;;;7.50;2.10;;;21.30;68.90;;;;;;9180862;19;20018;-67
2022/07/22 09:54:34;;;;;;;4.93;2.17;;;21.30;68.70;;;;;;9178587;19;20017;-67
2022/07/22 09:57:39;;;;;;;4.18;1.55;;;21.40;68.50;;;;;;9176408;19;20010;-66
2022/07/22 10:00:49;;;;;;;9.98;1.70;;;21.40;68.40;;;;;;9178052;19;20085;-66
2022/07/22 10:03:58;;;;;;;7.13;1.27;;;21.50;68.10;;;;;;9177918;19;20010;-65
2022/07/22 10:07:05;;;;;;;5.53;1.63;;;21.50;68.00;;;;;;9173954;19;20094;-66
2022/07/22 10:10:16;;;;;;;4.55;1.40;;;21.60;68.00;;;;;;9177565;19;20020;-65
2022/07/22 10:13:22;;;;;;;4.07;1.27;;;21.60;67.80;;;;;;9177484;19;20528;-67
2022/07/22 10:16:30;;;;;;;4.28;1.02;;;21.70;67.80;;;;;;9178438;19;20025;-66
2022/07/22 10:19:35;;;;;;;4.40;1.08;;;21.70;67.60;;;;;;9176589;19;20023;-68
2022/07/22 10:22:55;;;;;;;6.13;1.35;;;21.70;68.20;;;;;;9177845;19;20015;-65
2022/07/22 10:26:07;;;;;;;6.25;1.70;;;21.70;67.20;;;;;;9176387;19;20510;-67
2022/07/22 10:29:30;;;;;;;3.15;0.93;;;21.70;67.30;;;;;;9178210;19;20078;-66
2022/07/22 10:32:38;;;;;;;7.32;1.70;;;21.70;66.90;;;;;;9171817;19;20014;-65
2022/07/22 10:35:57;;;;;;;8.27;1.52;;;21.70;67.10;;;;;;9173845;19;20033;-67
2022/07/22 10:39:08;;;;;;;2.67;1.20;;;21.70;66.80;;;;;;9170816;19;20034;-67
2022/07/22 10:42:15;;;;;;;8.25;1.52;;;21.70;66.80;;;;;;9172787;19;20063;-66
2022/07/22 10:45:21;;;;;;;5.13;1.27;;;21.70;66.80;;;;;;9172765;19;20014;-68
2022/07/22 10:48:49;;;;;;;6.07;1.20;;;21.70;66.70;;;;;;9173412;19;20014;-68
2022/07/22 10:52:16;;;;;;;4.75;1.20;;;21.70;66.40;;;;;;9180590;19;20022;-66
2022/07/22 10:55:24;;;;;;;4.55;1.35;;;21.70;66.50;;;;;;9181335;19;20451;-67
2022/07/22 10:58:45;;;;;;;7.15;1.33;;;21.70;66.60;;;;;;9178461;19;20019;-68
2022/07/22 11:01:54;;;;;;;2.47;1.08;;;21.70;66.20;;;;;;9178685;19;20018;-69
2022/07/22 11:05:02;;;;;;;3.35;1.15;;;21.70;66.30;;;;;;9169301;19;20014;-69
2022/07/22 11:08:12;;;;;;;3.08;1.17;;;21.70;66.30;;;;;;9174691;19;20052;-68
2022/07/22 11:11:18;;;;;;;7.53;1.70;;;21.70;66.00;;;;;;9176904;19;20026;-69
2022/07/22 11:14:30;;;;;;;5.07;1.33;;;21.70;66.70;;;;;;9173777;19;20015;-69
2022/07/22 11:17:35;;;;;;;5.40;1.17;;;21.80;66.00;;;;;;9171965;19;20579;-66
2022/07/22 11:20:44;;;;;;;2.17;1.17;;;21.80;66.00;;;;;;9176207;19;20029;-69
2022/07/22 11:23:52;;;;;;;3.60;1.58;;;21.80;65.80;;;;;;9175343;19;20380;-69
2022/07/22 11:26:59;;;;;;;8.32;1.90;;;21.80;65.80;;;;;;9172871;19;20366;-67
2022/07/22 11:30:10;;;;;;;3.45;1.20;;;21.80;66.40;;;;;;9174761;19;20018;-68
2022/07/22 11:33:15;;;;;;;6.63;1.50;;;21.90;65.80;;;;;;9175538;19;20026;-66
2022/07/22 11:36:34;;;;;;;4.97;1.58;;;21.90;65.70;;;;;;9173865;19;20131;-68
2022/07/22 11:39:40;;;;;;;12.93;2.13;;;22.00;65.40;;;;;;9177537;19;20015;-68
2022/07/22 11:42:45;;;;;;;3.65;1.20;;;22.00;65.40;;;;;;9179450;19;20030;-70
2022/07/22 11:46:00;;;;;;;3.92;1.02;;;22.10;65.30;;;;;;9178380;19;20035;-68
2022/07/22 11:49:05;;;;;;;4.30;1.20;;;22.20;65.00;;;;;;9177829;19;20018;-68
2022/07/22 11:52:14;;;;;;;3.60;1.17;;;22.20;65.10;;;;;;9172757;19;20107;-68
2022/07/22 11:55:19;;;;;;;3.50;1.35;;;22.20;64.80;;;;;;9173367;19;20106;-69
2022/07/22 11:58:36;;;;;;;6.03;0.82;;;22.30;65.20;;;;;;9172107;19;20018;-70
2022/07/22 12:01:43;;;;;;;6.95;1.50;;;22.30;64.40;;;;;;9170418;19;20018;-71
2022/07/22 12:04:49;;;;;;;5.30;1.20;;;22.40;64.60;;;;;;9169704;19;20558;-69
2022/07/22 12:08:10;;;;;;;4.32;1.30;;;22.40;64.40;;;;;;9177075;19;20018;-70
2022/07/22 12:11:18;;;;;;;2.55;0.90;;;22.50;64.30;;;;;;9172351;19;20030;-68
2022/07/22 12:14:25;;;;;;;3.72;1.13;;;22.50;64.20;;;;;;9172204;19;20391;-66
2022/07/22 12:17:30;;;;;;;4.50;1.05;;;22.60;64.10;;;;;;9170820;19;20472;-71
2022/07/22 12:20:35;;;;;;;3.90;1.08;;;22.60;63.90;;;;;;9172783;19;20023;-70
2022/07/22 12:23:53;;;;;;;3.67;1.10;;;22.70;63.90;;;;;;9173840;19;20026;-68
2022/07/22 12:27:02;;;;;;;5.38;1.27;;;22.70;63.60;;;;;;9173808;19;20011;-70
2022/07/22 12:30:15;;;;;;;4.40;1.48;;;22.70;63.70;;;;;;9175297;19;20026;-70
2022/07/22 12:33:21;;;;;;;6.83;1.00;;;22.80;63.30;;;;;;9174301;19;20049;-68
2022/07/22 12:36:35;;;;;;;2.85;1.00;;;22.80;63.30;;;;;;9173344;19;20018;-69
2022/07/22 12:39:55;;;;;;;3.95;1.27;;;22.90;63.10;;;;;;9175626;19;20112;-70
2022/07/22 12:43:05;;;;;;;3.55;1.05;;;22.90;62.80;;;;;;9172332;19;20681;-67
2022/07/22 12:46:10;;;;;;;5.00;1.10;;;22.90;62.90;;;;;;9181792;19;20007;-67
2022/07/22 12:49:17;;;;;;;4.60;1.05;;;22.90;62.90;;;;;;9181197;19;20062;-66
2022/07/22 12:52:23;;;;;;;5.80;1.77;;;22.90;62.80;;;;;;9179787;19;20029;-67
2022/07/22 12:55:31;;;;;;;6.65;1.30;;;23.00;62.70;;;;;;9179266;19;20016;-68
2022/07/22 12:58:37;;;;;;;9.05;1.40;;;23.00;62.50;;;;;;9179242;19;20491;-69
2022/07/22 13:01:43;;;;;;;4.80;1.42;;;23.00;62.50;;;;;;9182887;19;20477;-69
2022/07/22 13:04:48;;;;;;;8.77;1.48;;;23.10;62.50;;;;;;9179128;19;20026;-69
2022/07/22 13:07:53;;;;;;;6.85;1.58;;;23.10;62.30;;;;;;9175484;19;20018;-67
2022/07/22 13:11:01;;;;;;;6.45;1.42;;;23.10;62.20;;;;;;9176428;19;20030;-69
2022/07/22 13:14:09;;;;;;;4.95;1.50;;;23.10;62.10;;;;;;9173234;19;20007;-67
2022/07/22 13:17:15;;;;;;;2.17;1.20;;;23.20;62.20;;;;;;9174652;19;20052;-67
2022/07/22 13:20:20;;;;;;;2.88;1.48;;;23.20;62.00;;;;;;9176234;19;20101;-68
2022/07/22 13:23:28;;;;;;;1.77;0.95;;;23.20;61.90;;;;;;9174619;19;20022;-67
2022/07/22 13:26:36;;;;;;;5.72;1.48;;;23.30;61.90;;;;;;9177840;19;20129;-68
2022/07/22 13:29:41;;;;;;;3.28;1.17;;;23.30;61.60;;;;;;9174973;19;20392;-68
2022/07/22 13:32:46;;;;;;;4.43;1.70;;;23.40;61.60;;;;;;9175004;19;20018;-70
2022/07/22 13:35:53;;;;;;;4.28;1.65;;;23.30;61.40;;;;;;9177518;19;20015;-69
2022/07/22 13:38:59;;;;;;;5.10;1.30;;;23.40;61.30;;;;;;9175556;19;20052;-67
2022/07/22 13:42:06;;;;;;;4.57;1.75;;;23.40;61.20;;;;;;9175805;19;20768;-68
2022/07/22 13:45:13;;;;;;;7.30;1.60;;;23.40;61.00;;;;;;9173523;19;20499;-70
2022/07/22 13:48:20;;;;;;;3.22;1.38;;;23.40;61.00;;;;;;9170478;19;20014;-69
2022/07/22 13:51:26;;;;;;;5.35;1.33;;;23.40;61.00;;;;;;9165537;19;20026;-68
2022/07/22 13:54:31;;;;;;;5.03;1.38;;;23.30;60.80;;;;;;9164626;19;20028;-69
2022/07/22 13:57:39;;;;;;;3.65;1.33;;;23.30;60.80;;;;;;9169082;19;20014;-69
2022/07/22 14:00:44;;;;;;;4.82;1.15;;;23.30;60.80;;;;;;9168106;19;20500;-68
2022/07/22 14:03:49;;;;;;;3.75;1.35;;;23.30;60.80;;;;;;9166993;19;20492;-70
2022/07/22 14:06:55;;;;;;;3.30;1.23;;;23.30;61.50;;;;;;9167351;19;20497;-68
2022/07/22 14:10:00;;;;;;;7.07;1.55;;;23.20;60.60;;;;;;9169422;19;20037;-68
2022/07/22 14:13:09;;;;;;;2.85;1.27;;;23.20;60.60;;;;;;9167387;19;20107;-68
2022/07/22 14:19:59;;;;;;;4.03;1.48;;;23.20;60.50;;;;;;9159409;19;20014;-69
2022/07/22 14:23:09;;;;;;;3.13;1.20;;;23.20;60.50;;;;;;9162430;19;20018;-66
2022/07/22 14:26:14;;;;;;;4.32;1.23;;;23.20;60.50;;;;;;9179081;19;20015;-68
2022/07/22 14:29:23;;;;;;;4.65;1.08;;;23.10;60.30;;;;;;9178093;19;20638;-67
2022/07/22 14:32:29;;;;;;;5.68;1.50;;;23.10;60.10;;;;;;9179973;19;20022;-67
2022/07/22 14:35:34;;;;;;;5.38;1.50;;;23.10;60.10;;;;;;9174833;19;20014;-68
2022/07/22 14:38:40;;;;;;;4.47;1.60;;;23.10;60.10;;;;;;9169790;19;20022;-70
2022/07/22 14:41:46;;;;;;;6.60;1.40;;;23.10;60.10;;;;;;9174546;19;20018;-70
2022/07/22 14:44:54;;;;;;;7.15;1.95;;;23.10;60.10;;;;;;9174683;19;20279;-70
2022/07/22 14:48:00;;;;;;;4.25;2.05;;;23.10;60.10;;;;;;9173383;19;20395;-70
2022/07/22 14:51:05;;;;;;;4.28;1.65;;;23.10;60.10;;;;;;9182057;19;20015;-70
2022/07/22 14:54:12;;;;;;;6.03;1.60;;;23.10;60.10;;;;;;9179056;19;20019;-72
2022/07/22 14:57:17;;;;;;;10.77;4.82;;;23.10;60.00;;;;;;9181099;19;20372;-72
2022/07/22 15:00:25;;;;;;;4.35;2.22;;;23.10;60.00;;;;;;9174835;19;20026;-70
2022/07/22 15:03:30;;;;;;;4.88;2.15;;;23.20;59.90;;;;;;9176237;19;20086;-67
2022/07/22 15:06:36;;;;;;;4.78;2.10;;;23.20;60.00;;;;;;9168898;19;20010;-67
2022/07/22 15:09:41;;;;;;;5.75;2.47;;;23.20;60.00;;;;;;9175400;19;20021;-69
2022/07/22 15:12:46;;;;;;;5.22;1.95;;;23.20;59.90;;;;;;9171548;19;20531;-69
2022/07/22 15:15:56;;;;;;;3.65;1.55;;;23.20;59.80;;;;;;9171277;19;20025;-67
2022/07/22 15:19:01;;;;;;;3.45;1.40;;;23.20;59.70;;;;;;9170681;19;20631;-67
2022/07/22 15:22:06;;;;;;;5.85;2.35;;;23.30;59.80;;;;;;9174536;19;20030;-68
2022/07/22 15:25:11;;;;;;;3.85;2.10;;;23.30;59.70;;;;;;9175212;19;20025;-66
2022/07/22 15:28:16;;;;;;;2.92;1.95;;;23.30;59.60;;;;;;9172805;19;20018;-68
2022/07/22 15:31:41;;;;;;;7.30;1.80;;;23.30;59.60;;;;;;9175045;19;20021;-69
2022/07/22 15:34:47;;;;;;;7.85;1.88;;;23.30;59.60;;;;;;9170372;19;20025;-67
2022/07/22 15:37:52;;;;;;;4.25;2.03;;;23.30;59.60;;;;;;9178153;19;20010;-68
2022/07/22 15:40:57;;;;;;;4.60;1.40;;;23.20;59.60;;;;;;9174149;19;20019;-69
2022/07/22 15:44:02;;;;;;;3.10;1.25;;;23.20;59.60;;;;;;9171969;19;20687;-67
2022/07/22 15:47:10;;;;;;;4.20;1.92;;;23.20;59.50;;;;;;9174407;19;20022;-66
2022/07/22 15:50:19;;;;;;;7.30;1.67;;;23.20;59.50;;;;;;9185710;19;20715;-67
2022/07/22 15:53:24;;;;;;;5.05;1.98;;;23.10;59.40;;;;;;9185081;19;20017;-66
2022/07/22 15:56:29;;;;;;;3.47;1.40;;;23.10;59.40;;;;;;9183957;19;20029;-66
2022/07/22 15:59:31;;;;;;;6.50;1.55;;;23.10;59.50;;;;;;9182838;19;20060;-66
2022/07/22 16:02:40;;;;;;;7.25;1.73;;;23.10;59.50;;;;;;9183512;19;20021;-66
2022/07/22 16:05:45;;;;;;;4.93;1.83;;;23.10;59.40;;;;;;9176505;19;20022;-66
2022/07/22 16:08:50;;;;;;;3.22;1.60;;;23.10;59.40;;;;;;9185645;19;20018;-67
2022/07/22 16:11:55;;;;;;;6.68;1.48;;;23.10;59.40;;;;;;9184644;19;20015;-66
2022/07/22 16:15:00;;;;;;;3.55;1.55;;;23.10;59.50;;;;;;9184789;19;20357;-66
2022/07/22 16:18:07;;;;;;;2.05;1.35;;;23.00;59.30;;;;;;9179213;19;20375;-66
2022/07/22 16:21:12;;;;;;;1.95;1.25;;;23.00;59.30;;;;;;9182541;19;20022;-66